Butuan, Philippines
Current Conditions -  °F | °C
As of 12:00 PM on Monday 26 Jan 2015 (Local Time) from RPMD Reporting Station
Broken Clouds Broken Clouds  
Wind Chill: 86°   Ceiling: 9000
Heat Index: 95°   Visibility: 6mi
Dew Point: 75°   Wind: 10mph
Humidity: 70%   Direction: 50°NE
Pressure: 29.85"   Gusts: NA
Location:  8.93°N, 125.52°E
Report Text: RPMD 260400Z 05009KT 9999 SCT016 BKN090 BKN290 30/24 Q1011 RMK A2985
Loading
Personal Weather Stations






























Interactive Weather Map New forecast layout! Learn more

10-Day Weather Forecast

Advertisements
Track Severe Weather on mobile